createdAt,value
2018-11-02T00:00:43.529Z,101058.14
2018-11-02T00:03:11.081Z,101083.00
2018-11-02T00:05:38.711Z,101104.84
2018-11-02T00:08:07.264Z,101109.17
2018-11-02T00:10:34.883Z,101100.84
2018-11-02T00:13:02.094Z,101089.06
2018-11-02T00:15:29.350Z,101075.11
2018-11-02T00:17:56.537Z,101073.36
2018-11-02T00:20:23.815Z,101059.34
2018-11-02T00:22:51.201Z,101060.28
2018-11-02T00:25:18.428Z,101057.27
2018-11-02T00:27:45.748Z,101051.98
2018-11-02T00:30:12.987Z,101063.38
2018-11-02T00:32:40.186Z,101072.14
2018-11-02T00:35:08.121Z,101069.12
2018-11-02T00:37:35.370Z,101070.47
2018-11-02T00:40:02.620Z,101056.98
2018-11-02T00:42:30.049Z,101059.23
2018-11-02T00:44:58.357Z,101057.94
2018-11-02T00:47:25.604Z,101053.61
2018-11-02T00:49:52.767Z,101059.31
2018-11-02T00:52:19.997Z,101053.22
2018-11-02T00:54:47.189Z,101061.95
2018-11-02T00:57:14.361Z,101083.70
2018-11-02T00:59:41.613Z,101089.38
2018-11-02T01:02:08.788Z,101089.36
2018-11-02T01:04:36.060Z,101087.19
2018-11-02T01:07:03.309Z,101087.62
2018-11-02T01:09:30.497Z,101076.73
2018-11-02T01:11:57.700Z,101069.79
2018-11-02T01:14:24.945Z,101078.50
2018-11-02T01:16:52.254Z,101074.58
2018-11-02T01:19:22.057Z,101072.41
2018-11-02T01:21:49.318Z,101093.30
2018-11-02T01:24:16.523Z,101111.56
2018-11-02T01:26:43.699Z,101121.59
2018-11-02T01:29:10.920Z,101120.30
2018-11-02T01:31:38.109Z,101122.88
2018-11-02T01:34:05.340Z,101126.82
2018-11-02T01:36:32.604Z,101129.85
2018-11-02T01:38:59.796Z,101120.71
2018-11-02T01:41:26.980Z,101122.02
2018-11-02T01:43:54.229Z,101126.36
2018-11-02T01:46:21.408Z,101119.80
2018-11-02T01:48:48.693Z,101131.06
2018-11-02T01:51:15.935Z,101126.72
2018-11-02T01:53:43.121Z,101129.73
2018-11-02T01:56:10.306Z,101134.04
2018-11-02T01:58:37.537Z,101128.36
2018-11-02T02:01:04.807Z,101130.50
2018-11-02T02:03:32.000Z,101143.95
2018-11-02T02:05:59.249Z,101149.59
2018-11-02T02:08:26.468Z,101152.58
2018-11-02T02:10:53.641Z,101146.05
2018-11-02T02:13:20.939Z,101146.50
2018-11-02T02:15:48.106Z,101147.78
2018-11-02T02:18:15.293Z,101142.99
2018-11-02T02:20:42.535Z,101139.92
2018-11-02T02:23:09.773Z,101149.88
2018-11-02T02:25:36.950Z,101150.29
2018-11-02T02:28:04.246Z,101152.08
2018-11-02T02:30:31.414Z,101152.56
2018-11-02T02:32:58.603Z,101154.33
2018-11-02T02:35:25.866Z,101162.63
2018-11-02T02:37:53.036Z,101167.39
2018-11-02T02:40:20.295Z,101163.03
2018-11-02T02:42:47.534Z,101166.14
2018-11-02T02:45:14.776Z,101173.17
2018-11-02T02:47:41.973Z,101184.92
2018-11-02T02:50:11.677Z,101178.78
2018-11-02T02:52:38.866Z,101182.23
2018-11-02T02:55:06.656Z,101181.35
2018-11-02T02:57:34.223Z,101183.94
2018-11-02T03:00:01.454Z,101177.80
2018-11-02T03:02:28.794Z,101182.52
2018-11-02T03:05:04.706Z,101189.41
2018-11-02T03:07:32.029Z,101193.33
2018-11-02T03:09:59.269Z,101191.16
2018-11-02T03:12:26.633Z,101191.15
2018-11-02T03:14:53.825Z,101187.75
2018-11-02T03:17:21.054Z,101182.16
2018-11-02T03:19:48.260Z,101193.45
2018-11-02T03:22:15.448Z,101196.93
2018-11-02T03:24:42.647Z,101195.98
2018-11-02T03:27:09.972Z,101202.05
2018-11-02T03:29:37.189Z,101189.09
2018-11-02T03:32:04.969Z,101188.24
2018-11-02T03:34:32.229Z,101190.91
2018-11-02T03:36:59.438Z,101190.04
2018-11-02T03:39:26.624Z,101198.30
2018-11-02T03:41:53.931Z,101205.27
2018-11-02T03:44:21.110Z,101205.23
2018-11-02T03:46:48.295Z,101203.91
2018-11-02T03:49:15.647Z,101203.42
2018-11-02T03:51:42.915Z,101206.03
2018-11-02T03:54:10.263Z,101214.32
2018-11-02T03:56:37.517Z,101214.32
2018-11-02T03:59:04.677Z,101211.75
2018-11-02T04:01:31.913Z,101210.07
2018-11-02T04:03:59.284Z,101216.69
2018-11-02T04:06:26.476Z,101221.94
2018-11-02T04:08:53.684Z,101222.42
2018-11-02T04:11:25.740Z,101225.08
2018-11-02T04:13:52.932Z,101224.27
2018-11-02T04:16:20.121Z,101228.66
2018-11-02T04:18:47.345Z,101228.27
2018-11-02T04:21:14.560Z,101233.50
2018-11-02T04:23:45.996Z,101235.25
2018-11-02T04:26:13.289Z,101233.53
2018-11-02T04:28:40.492Z,101236.59
2018-11-02T04:31:07.742Z,101241.84
2018-11-02T04:33:34.911Z,101240.52
2018-11-02T04:36:02.140Z,101239.22
2018-11-02T04:38:29.328Z,101233.13
2018-11-02T04:40:56.844Z,101240.97
2018-11-02T04:43:24.046Z,101247.51
2018-11-02T04:45:51.208Z,101250.56
2018-11-02T04:48:18.461Z,101252.75
2018-11-02T04:50:45.725Z,101260.15
2018-11-02T04:53:12.916Z,101258.84
2018-11-02T04:55:40.242Z,101265.38
2018-11-02T04:58:07.446Z,101276.72
2018-11-02T05:00:34.670Z,101272.80
2018-11-02T05:03:02.611Z,101277.59
2018-11-02T05:05:29.760Z,101271.91
2018-11-02T05:07:56.959Z,101274.53
2018-11-02T05:10:24.193Z,101279.77
2018-11-02T05:12:51.397Z,101274.11
2018-11-02T05:15:18.589Z,101267.11
2018-11-02T05:17:45.826Z,101281.06
2018-11-02T05:20:14.920Z,101288.93
2018-11-02T05:22:42.143Z,101304.63
2018-11-02T05:25:09.923Z,101303.31
2018-11-02T05:27:37.337Z,101304.18
2018-11-02T05:30:05.330Z,101299.40
2018-11-02T05:32:32.580Z,101308.09
2018-11-02T05:34:59.776Z,101309.86
2018-11-02T05:37:26.949Z,101317.26
2018-11-02T05:39:54.200Z,101316.84
2018-11-02T05:42:21.384Z,101321.19
2018-11-02T05:44:48.792Z,101332.54
2018-11-02T05:47:16.116Z,101333.84
2018-11-02T05:49:43.307Z,101336.45
2018-11-02T05:52:12.516Z,101335.16
2018-11-02T05:54:40.217Z,101335.14
2018-11-02T05:57:07.764Z,101349.55
2018-11-02T05:59:34.965Z,101347.79
2018-11-02T06:02:02.195Z,101351.70
2018-11-02T06:04:29.371Z,101351.70
2018-11-02T06:06:56.621Z,101347.78
2018-11-02T06:09:23.873Z,101347.34
2018-11-02T06:11:51.066Z,101347.34
2018-11-02T06:14:18.308Z,101354.34
2018-11-02T06:16:45.583Z,101364.80
2018-11-02T06:19:12.813Z,101370.45
2018-11-02T06:21:39.975Z,101370.91
2018-11-02T06:24:07.221Z,101372.64
2018-11-02T06:26:34.491Z,101373.50
2018-11-02T06:29:01.644Z,101385.30
2018-11-02T06:31:29.017Z,101388.78
2018-11-02T06:33:56.208Z,101404.44
2018-11-02T06:36:23.421Z,101410.54
2018-11-02T06:38:50.801Z,101404.45
2018-11-02T06:41:17.932Z,101408.81
2018-11-02T06:43:45.228Z,101413.18
2018-11-02T06:46:12.627Z,101417.96
2018-11-02T06:48:39.899Z,101422.75
2018-11-02T06:51:07.201Z,101430.18
2018-11-02T06:53:39.880Z,101438.47
2018-11-02T06:56:07.146Z,101457.25
2018-11-02T06:58:34.333Z,101451.58
2018-11-02T07:01:01.762Z,101453.36
2018-11-02T07:03:29.017Z,101453.81
2018-11-02T07:05:56.670Z,101459.92
2018-11-02T07:08:24.161Z,101453.37
2018-11-02T07:10:51.338Z,101460.35
2018-11-02T07:13:18.527Z,101462.98
2018-11-02T07:15:46.257Z,101461.25
2018-11-02T07:18:13.431Z,101472.16
2018-11-02T07:20:41.058Z,101473.01
2018-11-02T07:23:08.393Z,101478.69
2018-11-02T07:25:36.268Z,101475.63
2018-11-02T07:28:03.578Z,101486.12
2018-11-02T07:30:30.784Z,101482.61
2018-11-02T07:32:58.104Z,101486.53
2018-11-02T07:35:25.258Z,101498.78
2018-11-02T07:37:52.488Z,101511.86
2018-11-02T07:40:19.673Z,101506.61
2018-11-02T07:42:46.948Z,101512.31
2018-11-02T07:45:14.285Z,101516.69
2018-11-02T07:47:41.538Z,101528.44
2018-11-02T07:50:10.238Z,101536.70
2018-11-02T07:52:37.593Z,101542.36
2018-11-02T07:55:06.745Z,101544.01
2018-11-02T07:57:34.300Z,101549.30
2018-11-02T08:00:03.648Z,101552.68
2018-11-02T08:02:30.840Z,101549.95
2018-11-02T08:04:58.013Z,101550.72
2018-11-02T08:07:26.853Z,101547.99
2018-11-02T08:09:54.119Z,101551.36
2018-11-02T08:12:21.278Z,101556.09
2018-11-02T08:14:49.358Z,101556.89
2018-11-02T08:17:16.541Z,101562.47
2018-11-02T08:19:44.733Z,101565.55
2018-11-02T08:22:12.009Z,101563.77
2018-11-02T08:24:39.253Z,101566.78
2018-11-02T08:27:06.320Z,101565.39
2018-11-02T08:29:33.519Z,101569.85
2018-11-02T08:32:00.891Z,101569.38
2018-11-02T08:34:28.125Z,101571.66
2018-11-02T08:36:55.455Z,101573.38
2018-11-02T08:39:22.692Z,101587.91
2018-11-02T08:41:49.933Z,101593.22
2018-11-02T08:44:17.572Z,101595.41
2018-11-02T08:46:44.760Z,101595.34
2018-11-02T08:49:12.075Z,101593.53
2018-11-02T08:51:39.298Z,101593.80
2018-11-02T08:54:06.919Z,101598.90
2018-11-02T08:56:34.171Z,101603.09
2018-11-02T08:59:01.397Z,101599.87
2018-11-02T09:01:28.632Z,101597.49
2018-11-02T09:03:55.806Z,101590.69
2018-11-02T09:06:23.008Z,101590.88
2018-11-02T09:08:50.221Z,101595.02
2018-11-02T09:11:17.525Z,101596.80
2018-11-02T09:13:44.962Z,101607.38
2018-11-02T09:16:12.123Z,101608.52
2018-11-02T09:18:40.300Z,101616.05
2018-11-02T09:21:07.514Z,101616.72
2018-11-02T09:23:34.854Z,101625.83
2018-11-02T09:26:02.096Z,101631.22
2018-11-02T09:28:29.288Z,101632.09
2018-11-02T09:30:56.446Z,101631.09
2018-11-02T09:33:23.719Z,101643.53
2018-11-02T09:35:50.995Z,101649.41
2018-11-02T09:38:18.192Z,101652.75
2018-11-02T09:40:45.373Z,101663.09
2018-11-02T09:43:12.605Z,101665.80
2018-11-02T09:45:39.896Z,101665.39
2018-11-02T09:48:07.135Z,101654.80
2018-11-02T09:50:34.374Z,101651.97
2018-11-02T09:53:01.568Z,101653.75
2018-11-02T09:55:28.916Z,101645.72
2018-11-02T09:57:56.147Z,101638.19
2018-11-02T10:00:23.481Z,101634.97
2018-11-02T10:02:50.669Z,101632.47
2018-11-02T10:05:17.934Z,101642.91
2018-11-02T10:07:45.180Z,101655.19
2018-11-02T10:10:12.715Z,101649.47
2018-11-02T10:12:40.121Z,101647.89
2018-11-02T10:15:10.048Z,101644.58
2018-11-02T10:17:37.242Z,101650.33
2018-11-02T10:20:05.443Z,101663.86
2018-11-02T10:22:32.647Z,101657.15
2018-11-02T10:24:59.870Z,101636.59
2018-11-02T10:27:27.116Z,101641.43
2018-11-02T10:29:54.354Z,101656.86
2018-11-02T10:32:21.602Z,101652.83
2018-11-02T10:34:48.879Z,101653.97
2018-11-02T10:37:16.241Z,101658.50
2018-11-02T10:39:43.725Z,101658.17
2018-11-02T10:42:11.125Z,101666.36
2018-11-02T10:44:40.305Z,101675.08
2018-11-02T10:47:08.334Z,101682.74
2018-11-02T10:49:35.625Z,101682.92
2018-11-02T10:52:03.068Z,101674.03
2018-11-02T10:54:30.400Z,101682.08
2018-11-02T10:56:57.799Z,101680.41
2018-11-02T10:59:25.149Z,101693.29
2018-11-02T11:01:58.010Z,101695.30
2018-11-02T11:04:25.324Z,101703.86
2018-11-02T11:06:52.590Z,101704.98
2018-11-02T11:09:19.899Z,101702.30
2018-11-02T11:11:47.349Z,101692.05
2018-11-02T11:14:14.427Z,101696.38
2018-11-02T11:16:41.777Z,101694.55
2018-11-02T11:19:09.783Z,101704.16
2018-11-02T11:21:37.727Z,101707.04
2018-11-02T11:24:05.115Z,101699.81
2018-11-02T11:26:32.400Z,101705.13
2018-11-02T11:28:59.775Z,101711.97
2018-11-02T11:31:27.177Z,101718.11
2018-11-02T11:33:54.461Z,101710.73
2018-11-02T11:36:21.773Z,101711.68
2018-11-02T11:38:49.080Z,101717.48
2018-11-02T11:41:16.342Z,101697.55
2018-11-02T11:43:43.635Z,101707.38
2018-11-02T11:46:11.025Z,101712.60
2018-11-02T11:48:38.317Z,101721.16
2018-11-02T11:51:05.733Z,101720.33
2018-11-02T11:53:33.165Z,101722.66
2018-11-02T11:56:00.412Z,101729.88
2018-11-02T11:58:27.674Z,101729.95
2018-11-02T12:00:54.974Z,101740.02
2018-11-02T12:03:22.242Z,101726.98
2018-11-02T12:05:49.518Z,101736.31
2018-11-02T12:08:16.865Z,101725.55
2018-11-02T12:10:44.136Z,101717.34
2018-11-02T12:13:11.364Z,101729.70
2018-11-02T12:15:38.761Z,101730.39
2018-11-02T12:18:06.061Z,101730.78
2018-11-02T12:20:33.333Z,101721.34
2018-11-02T12:23:01.974Z,101727.66
2018-11-02T12:25:29.298Z,101730.94
2018-11-02T12:27:56.590Z,101733.52
2018-11-02T12:30:23.860Z,101729.67
2018-11-02T12:32:51.150Z,101725.95
2018-11-02T12:35:19.096Z,101725.36
2018-11-02T12:37:46.590Z,101725.82
2018-11-02T12:40:15.133Z,101733.47
2018-11-02T12:42:42.962Z,101730.02
2018-11-02T12:45:11.803Z,101729.50
2018-11-02T12:47:39.664Z,101729.14
2018-11-02T12:50:14.761Z,101728.33
2018-11-02T12:52:42.621Z,101729.39
2018-11-02T12:55:10.305Z,101738.82
2018-11-02T12:57:37.739Z,101739.64
2018-11-02T13:00:07.406Z,101744.16
2018-11-02T13:02:34.668Z,101756.28
2018-11-02T13:05:02.065Z,101749.88
2018-11-02T13:07:29.597Z,101757.33
2018-11-02T13:09:56.945Z,101753.37
2018-11-02T13:12:24.312Z,101758.23
2018-11-02T13:14:51.744Z,101756.39
2018-11-02T13:17:19.217Z,101757.97
2018-11-02T13:19:46.483Z,101756.61
2018-11-02T13:22:13.915Z,101750.73
2018-11-02T13:24:41.189Z,101754.55
2018-11-02T13:27:08.643Z,101754.19
2018-11-02T13:29:35.940Z,101760.45
2018-11-02T13:32:03.291Z,101776.30
2018-11-02T13:34:30.751Z,101778.12
2018-11-02T13:36:58.158Z,101785.67
2018-11-02T13:39:25.492Z,101787.72
2018-11-02T13:41:52.958Z,101797.72
2018-11-02T13:44:20.205Z,101795.95
2018-11-02T13:46:47.473Z,101802.70
2018-11-02T13:49:14.858Z,101797.41
2018-11-02T13:51:42.065Z,101800.17
2018-11-02T13:54:09.226Z,101791.11
2018-11-02T13:56:36.438Z,101791.05
2018-11-02T13:59:03.992Z,101785.70
2018-11-02T14:01:31.141Z,101786.83
2018-11-02T14:03:58.418Z,101790.06
2018-11-02T14:06:25.580Z,101781.48
2018-11-02T14:08:52.765Z,101776.45
2018-11-02T14:11:20.366Z,101767.25
2018-11-02T14:13:47.668Z,101764.85
2018-11-02T14:16:14.872Z,101770.33
2018-11-02T14:18:42.173Z,101786.62
2018-11-02T14:21:09.380Z,101794.78
2018-11-02T14:23:36.649Z,101804.62
2018-11-02T14:26:03.902Z,101800.75
2018-11-02T14:28:31.068Z,101801.51
2018-11-02T14:30:58.273Z,101804.59
2018-11-02T14:33:25.622Z,101803.58
2018-11-02T14:35:52.811Z,101805.12
2018-11-02T14:38:19.997Z,101804.86
2018-11-02T14:40:47.217Z,101810.64
2018-11-02T14:43:14.392Z,101804.05
2018-11-02T14:45:41.590Z,101805.19
2018-11-02T14:48:08.809Z,101808.98
2018-11-02T14:50:35.973Z,101815.81
2018-11-02T14:53:03.180Z,101820.83
2018-11-02T14:55:30.450Z,101821.89
2018-11-02T14:57:57.720Z,101823.88
2018-11-02T15:00:24.896Z,101833.72
2018-11-02T15:02:52.112Z,101830.39
2018-11-02T15:05:19.268Z,101827.02
2018-11-02T15:07:46.482Z,101846.42
2018-11-02T15:10:13.694Z,101850.44
2018-11-02T15:12:40.876Z,101850.56
2018-11-02T15:15:09.256Z,101855.02
2018-11-02T15:17:36.471Z,101855.88
2018-11-02T15:20:05.012Z,101862.10
2018-11-02T15:22:32.180Z,101866.14
2018-11-02T15:24:59.392Z,101870.14
2018-11-02T15:27:26.837Z,101864.95
2018-11-02T15:29:54.021Z,101867.58
2018-11-02T15:32:21.248Z,101872.44
2018-11-02T15:34:48.438Z,101875.97
2018-11-02T15:37:15.617Z,101884.31
2018-11-02T15:39:42.804Z,101899.25
2018-11-02T15:42:09.996Z,101911.08
2018-11-02T15:44:37.320Z,101915.91
2018-11-02T15:47:04.923Z,101903.21
2018-11-02T15:49:32.091Z,101910.22
2018-11-02T15:51:59.265Z,101900.59
2018-11-02T15:54:26.510Z,101906.27
2018-11-02T15:56:53.690Z,101906.27
2018-11-02T15:59:20.876Z,101911.03
2018-11-02T16:01:48.096Z,101913.20
2018-11-02T16:04:15.257Z,101919.29
2018-11-02T16:06:42.505Z,101914.91
2018-11-02T16:09:12.044Z,101911.39
2018-11-02T16:11:39.257Z,101912.25
2018-11-02T16:14:06.430Z,101912.20
2018-11-02T16:16:33.623Z,101910.44
2018-11-02T16:19:00.784Z,101912.58
2018-11-02T16:21:28.009Z,101915.14
2018-11-02T16:23:55.290Z,101909.98
2018-11-02T16:26:22.489Z,101904.20
2018-11-02T16:28:49.666Z,101916.84
2018-11-02T16:31:16.905Z,101917.65
2018-11-02T16:33:44.128Z,101918.45
2018-11-02T16:36:11.300Z,101917.53
2018-11-02T16:38:38.518Z,101930.19
2018-11-02T16:41:05.705Z,101926.21
2018-11-02T16:43:32.925Z,101941.89
2018-11-02T16:46:00.409Z,101938.34
2018-11-02T16:48:27.584Z,101951.85
2018-11-02T16:50:54.757Z,101957.47
2018-11-02T16:53:21.959Z,101962.27
2018-11-02T16:55:49.103Z,101974.47
2018-11-02T16:58:16.268Z,101977.20
2018-11-02T17:00:43.518Z,101982.34
2018-11-02T17:03:10.661Z,101989.66
2018-11-02T17:05:37.837Z,101996.16
2018-11-02T17:08:05.068Z,101989.59
2018-11-02T17:10:32.239Z,101999.19
2018-11-02T17:12:59.408Z,101998.23
2018-11-02T17:15:26.640Z,101998.16
2018-11-02T17:17:53.834Z,101996.42
2018-11-02T17:20:21.005Z,101995.55
2018-11-02T17:22:48.312Z,101990.69
2018-11-02T17:25:15.878Z,101999.40
2018-11-02T17:27:43.057Z,102005.03
2018-11-02T17:30:12.884Z,102015.42
2018-11-02T17:32:40.089Z,102025.87
2018-11-02T17:35:08.323Z,102032.84
2018-11-02T17:37:35.815Z,102035.45
2018-11-02T17:40:03.200Z,102040.70
2018-11-02T17:42:30.402Z,102041.68
2018-11-02T17:44:58.217Z,102047.97
2018-11-02T17:47:25.591Z,102051.38
2018-11-02T17:49:53.329Z,102054.86
2018-11-02T17:52:20.569Z,102051.89
2018-11-02T17:54:48.065Z,102053.34
2018-11-02T17:57:15.265Z,102054.64
2018-11-02T17:59:42.751Z,102051.63
2018-11-02T18:02:10.034Z,102050.31
2018-11-02T18:04:37.273Z,102050.77
2018-11-02T18:07:05.072Z,102053.41
2018-11-02T18:09:32.269Z,102049.00
2018-11-02T18:11:59.564Z,102057.73
2018-11-02T18:14:26.930Z,102071.73
2018-11-02T18:16:54.314Z,102075.20
2018-11-02T18:19:21.624Z,102074.34
2018-11-02T18:21:48.892Z,102078.23
2018-11-02T18:24:16.287Z,102083.47
2018-11-02T18:26:43.427Z,102089.16
2018-11-02T18:29:10.805Z,102099.26
2018-11-02T18:31:38.286Z,102091.29
2018-11-02T18:34:05.448Z,102096.00
2018-11-02T18:36:32.814Z,102097.25
2018-11-02T18:39:00.327Z,102094.11
2018-11-02T18:41:27.633Z,102105.03
2018-11-02T18:43:54.924Z,102106.87
2018-11-02T18:46:22.227Z,102120.47
2018-11-02T18:48:49.589Z,102120.36
2018-11-02T18:51:16.884Z,102118.91
2018-11-02T18:53:44.234Z,102138.04
2018-11-02T18:56:11.565Z,102140.05
2018-11-02T18:58:38.910Z,102134.72
2018-11-02T19:01:06.069Z,102135.50
2018-11-02T19:03:33.367Z,102138.85
2018-11-02T19:06:00.610Z,102147.13
2018-11-02T19:08:27.795Z,102145.73
2018-11-02T19:10:54.970Z,102142.67
2018-11-02T19:13:22.219Z,102147.91
2018-11-02T19:15:49.535Z,102150.09
2018-11-02T19:18:16.909Z,102149.27
2018-11-02T19:20:44.295Z,102151.91
2018-11-02T19:23:11.534Z,102158.08
2018-11-02T19:25:38.896Z,102164.80
2018-11-02T19:28:06.196Z,102164.30
2018-11-02T19:30:33.381Z,102178.23
2018-11-02T19:33:00.870Z,102184.80
2018-11-02T19:35:28.898Z,102192.73
2018-11-02T19:37:56.119Z,102199.37
2018-11-02T19:40:23.349Z,102202.95
2018-11-02T19:42:50.744Z,102204.42
2018-11-02T19:45:17.961Z,102202.79
2018-11-02T19:47:50.935Z,102208.94
2018-11-02T19:50:18.961Z,102206.67
2018-11-02T19:52:46.196Z,102201.45
2018-11-02T19:55:13.826Z,102210.67
2018-11-02T19:57:42.415Z,102208.91
2018-11-02T20:00:11.242Z,102218.98
2018-11-02T20:02:39.004Z,102228.16
2018-11-02T20:05:07.635Z,102232.47
2018-11-02T20:07:34.810Z,102233.83
2018-11-02T20:10:02.203Z,102225.65
2018-11-02T20:12:29.380Z,102225.44
2018-11-02T20:14:56.572Z,102221.58
2018-11-02T20:17:23.867Z,102216.22
2018-11-02T20:19:51.040Z,102217.91
2018-11-02T20:22:18.286Z,102219.15
2018-11-02T20:24:45.580Z,102216.95
2018-11-02T20:27:12.792Z,102216.09
2018-11-02T20:29:39.997Z,102220.89
2018-11-02T20:32:07.376Z,102224.73
2018-11-02T20:34:34.529Z,102239.08
2018-11-02T20:37:01.705Z,102250.47
2018-11-02T20:39:28.965Z,102237.88
2018-11-02T20:41:56.117Z,102245.20
2018-11-02T20:44:23.321Z,102258.72
2018-11-02T20:46:50.554Z,102259.66
2018-11-02T20:49:17.772Z,102255.36
2018-11-02T20:51:45.094Z,102247.05
2018-11-02T20:54:12.321Z,102245.23
2018-11-02T20:56:39.508Z,102251.58
2018-11-02T20:59:06.647Z,102259.86
2018-11-02T21:01:34.027Z,102255.83
2018-11-02T21:04:01.211Z,102247.05
2018-11-02T21:06:28.496Z,102249.61
2018-11-02T21:08:55.923Z,102258.64
2018-11-02T21:11:23.061Z,102260.46
2018-11-02T21:13:50.213Z,102267.80
2018-11-02T21:16:17.509Z,102268.62
2018-11-02T21:18:44.666Z,102263.73
2018-11-02T21:21:11.905Z,102269.34
2018-11-02T21:23:39.125Z,102274.09
2018-11-02T21:26:06.334Z,102276.23
2018-11-02T21:28:33.508Z,102277.20
2018-11-02T21:31:00.810Z,102273.89
2018-11-02T21:33:27.996Z,102268.49
2018-11-02T21:35:55.171Z,102272.76
2018-11-02T21:38:22.475Z,102285.45
2018-11-02T21:40:49.663Z,102277.17
2018-11-02T21:43:16.851Z,102277.99
2018-11-02T21:45:44.091Z,102276.56
2018-11-02T21:48:11.293Z,102287.37
2018-11-02T21:50:38.467Z,102293.33
2018-11-02T21:53:05.784Z,102298.08
2018-11-02T21:55:32.972Z,102309.33
2018-11-02T21:58:00.181Z,102314.63
2018-11-02T22:00:27.497Z,102314.72
2018-11-02T22:02:54.631Z,102300.39
2018-11-02T22:05:21.892Z,102306.77
2018-11-02T22:07:49.963Z,102299.62
2018-11-02T22:10:17.538Z,102298.77
2018-11-02T22:12:44.730Z,102305.24
2018-11-02T22:15:11.994Z,102317.30
2018-11-02T22:17:39.845Z,102321.26
2018-11-02T22:20:08.365Z,102321.23
2018-11-02T22:22:35.653Z,102315.57
2018-11-02T22:25:02.860Z,102303.56
2018-11-02T22:27:30.070Z,102307.42
2018-11-02T22:29:57.381Z,102307.15
2018-11-02T22:32:24.664Z,102314.11
2018-11-02T22:34:51.842Z,102311.07
2018-11-02T22:37:19.097Z,102310.67
2018-11-02T22:39:46.328Z,102315.94
2018-11-02T22:42:13.546Z,102317.22
2018-11-02T22:44:40.745Z,102325.47
2018-11-02T22:47:07.928Z,102333.73
2018-11-02T22:49:35.124Z,102337.23
2018-11-02T22:52:02.445Z,102333.02
2018-11-02T22:54:29.664Z,102325.95
2018-11-02T22:56:56.825Z,102326.71
2018-11-02T22:59:24.069Z,102327.95
2018-11-02T23:01:51.268Z,102333.34
2018-11-02T23:04:18.456Z,102325.03
2018-11-02T23:06:45.813Z,102329.69
2018-11-02T23:09:13.165Z,102316.40
2018-11-02T23:11:40.548Z,102322.23
2018-11-02T23:14:07.930Z,102313.84
2018-11-02T23:16:35.149Z,102314.97
2018-11-02T23:19:02.419Z,102312.84
2018-11-02T23:21:29.672Z,102306.30
2018-11-02T23:23:56.848Z,102306.23
2018-11-02T23:26:24.005Z,102309.31
2018-11-02T23:28:51.299Z,102301.91
2018-11-02T23:31:18.471Z,102303.59
2018-11-02T23:33:46.051Z,102306.11
2018-11-02T23:36:13.301Z,102303.56
2018-11-02T23:38:40.509Z,102299.75
2018-11-02T23:41:07.719Z,102294.61
2018-11-02T23:43:35.218Z,102300.20
2018-11-02T23:46:02.511Z,102304.98
2018-11-02T23:48:29.923Z,102309.12
2018-11-02T23:50:57.191Z,102308.58
2018-11-02T23:53:24.360Z,102315.60
2018-11-02T23:55:51.525Z,102315.94
2018-11-02T23:58:18.995Z,102310.37
